Time;durP1;ratioP1;P1;durP2;ratioP2;P2;SDS_P1;SDS_P2;PMS_P1;PMS_P2;Temp;Humidity;BMP_temperature;BMP_pressure;BME280_temperature;BME280_humidity;BME280_pressure;Samples;Min_cycle;Max_cycle;Signal;HPM_P1;HPM_P2
2024/03/13 00:00:10;;;;;;;2.47;2.28;;;;;;;4.24;68.59;100506.63;5126956;28;20421;-63
2024/03/13 00:02:37;;;;;;;9.68;1.20;;;;;;;4.19;68.54;100492.00;5125573;28;20061;-62
2024/03/13 00:05:04;;;;;;;5.63;2.67;;;;;;;4.26;68.70;100503.28;5126874;28;20045;-64
2024/03/13 00:07:31;;;;;;;3.20;2.05;;;;;;;4.27;68.63;100496.41;5126660;28;20108;-62
2024/03/13 00:09:57;;;;;;;2.63;2.05;;;;;;;4.21;69.11;100495.47;5126583;28;20047;-63
2024/03/13 00:12:22;;;;;;;1.33;1.23;;;;;;;4.21;69.04;100489.47;5126455;28;20414;-62
2024/03/13 00:14:51;;;;;;;2.22;1.90;;;;;;;4.28;68.77;100496.44;5126481;28;20053;-64
2024/03/13 00:17:20;;;;;;;1.73;1.63;;;;;;;4.31;68.37;100493.06;5126476;28;20511;-63
2024/03/13 00:19:49;;;;;;;3.00;1.38;;;;;;;4.21;68.54;100485.19;5126429;28;20024;-63
2024/03/13 00:22:18;;;;;;;2.58;2.38;;;;;;;4.26;68.00;100489.53;5108357;28;20030;-64
2024/03/13 00:24:56;;;;;;;4.10;2.88;;;;;;;4.14;68.26;100488.47;5107914;28;20371;-62
2024/03/13 00:27:22;;;;;;;2.35;1.98;;;;;;;4.03;68.85;100488.25;5125943;28;20019;-62
2024/03/13 00:29:48;;;;;;;4.00;2.22;;;;;;;3.94;68.84;100491.53;5126274;28;20049;-63
2024/03/13 00:32:15;;;;;;;21.33;1.70;;;;;;;3.97;68.80;100489.03;5126272;28;20428;-63
2024/03/13 00:34:43;;;;;;;3.03;1.67;;;;;;;3.95;69.48;100485.53;5125659;28;20054;-62
2024/03/13 00:37:09;;;;;;;3.00;1.67;;;;;;;3.88;69.45;100486.28;5125856;28;20020;-63
2024/03/13 00:39:34;;;;;;;2.47;2.05;;;;;;;3.79;70.10;100480.91;5126040;28;20043;-62
2024/03/13 00:42:02;;;;;;;0.98;0.98;;;;;;;3.75;71.13;100481.69;5126218;28;20035;-63
2024/03/13 00:44:28;;;;;;;2.33;2.15;;;;;;;3.62;71.47;100476.31;5125798;28;20068;-62
2024/03/13 00:46:54;;;;;;;0.82;0.82;;;;;;;3.61;72.14;100482.25;5125899;28;20019;-63
2024/03/13 00:49:19;;;;;;;5.97;2.30;;;;;;;3.56;72.57;100478.75;5125950;28;20058;-63
2024/03/13 00:51:45;;;;;;;1.65;1.55;;;;;;;3.49;72.87;100476.88;5107630;28;20027;-64
2024/03/13 00:54:11;;;;;;;1.95;1.55;;;;;;;3.37;73.23;100457.78;5126192;28;20075;-62
2024/03/13 00:56:36;;;;;;;1.33;1.23;;;;;;;3.45;73.60;100471.66;5125818;28;20491;-62
2024/03/13 00:59:05;;;;;;;2.38;1.10;;;;;;;3.42;73.76;100476.72;5126084;28;20015;-62
2024/03/13 01:01:30;;;;;;;9.40;2.15;;;;;;;3.41;73.98;100475.00;5125723;28;20400;-63
2024/03/13 01:03:59;;;;;;;3.90;2.35;;;;;;;3.42;74.12;100475.88;5126058;28;20049;-62
2024/03/13 01:06:28;;;;;;;2.72;1.67;;;;;;;3.44;74.06;100469.94;5124071;28;20019;-62
2024/03/13 01:08:55;;;;;;;4.85;2.45;;;;;;;3.46;74.35;100470.84;5125278;28;20058;-63
2024/03/13 01:11:21;;;;;;;6.22;1.63;;;;;;;3.45;74.39;100476.78;5125172;28;20038;-63
2024/03/13 01:13:47;;;;;;;2.58;2.05;;;;;;;3.47;74.35;100479.41;5125706;28;20069;-62
2024/03/13 01:16:12;;;;;;;6.05;2.67;;;;;;;3.47;74.31;100467.44;5125493;28;20019;-64
2024/03/13 01:18:37;;;;;;;7.30;4.47;;;;;;;3.50;74.48;100476.91;5107059;28;20094;-63
2024/03/13 01:21:03;;;;;;;3.53;3.05;;;;;;;3.50;74.62;100468.34;5125483;28;20471;-62
2024/03/13 01:23:28;;;;;;;7.50;2.38;;;;;;;3.52;74.75;100469.22;5125537;28;20023;-63
2024/03/13 01:25:57;;;;;;;1.83;1.67;;;;;;;3.49;74.88;100470.03;5125440;28;20023;-62
2024/03/13 01:28:23;;;;;;;7.18;2.05;;;;;;;3.44;75.03;100471.63;5125250;28;20024;-62
2024/03/13 01:30:48;;;;;;;2.72;1.77;;;;;;;3.54;74.75;100480.41;5125226;28;20019;-62
2024/03/13 01:33:14;;;;;;;3.78;3.22;;;;;;;3.59;74.54;100465.97;5125046;28;20020;-63
2024/03/13 01:35:39;;;;;;;4.95;2.67;;;;;;;3.54;74.64;100465.00;5125115;28;20028;-63
2024/03/13 01:38:04;;;;;;;2.83;1.95;;;;;;;3.63;74.42;100461.75;5125091;28;20077;-63
2024/03/13 01:57:15;;;;;;;3.13;2.70;;;;;;;3.59;74.61;100450.56;5129105;28;20027;-62
2024/03/13 02:02:21;;;;;;;6.05;2.90;;;;;;;3.59;74.83;100455.72;5128983;28;20031;-63
2024/03/13 02:02:35;;;;;;;4.47;2.90;;;;;;;3.54;74.84;100442.78;5128262;28;20027;-62
2024/03/13 02:05:01;;;;;;;3.22;1.83;;;;;;;3.55;75.11;100443.63;5127539;28;20023;-62
2024/03/13 02:07:26;;;;;;;6.95;3.47;;;;;;;3.52;75.40;100451.25;5128612;28;20016;-63
2024/03/13 02:09:54;;;;;;;3.90;2.92;;;;;;;3.48;75.56;100458.06;5128595;28;20055;-63
2024/03/13 02:12:19;;;;;;;5.22;2.78;;;;;;;3.47;75.28;100452.03;5127377;28;20483;-63
2024/03/13 02:14:45;;;;;;;9.00;3.42;;;;;;;3.52;75.39;100448.69;5128286;28;20027;-63
2024/03/13 02:17:10;;;;;;;4.28;3.72;;;;;;;3.58;75.29;100443.69;5128646;28;20077;-63
2024/03/13 02:19:37;;;;;;;8.45;4.57;;;;;;;3.54;75.47;100441.91;5128339;28;20111;-63
2024/03/13 02:22:04;;;;;;;5.95;2.00;;;;;;;3.50;75.44;100448.66;5128423;28;20102;-63
2024/03/13 02:24:30;;;;;;;8.27;3.83;;;;;;;3.49;75.92;100446.06;5128649;28;20020;-63
2024/03/13 02:26:56;;;;;;;2.88;2.45;;;;;;;3.42;76.41;100435.66;5109684;28;20091;-63
2024/03/13 02:29:21;;;;;;;8.75;3.38;;;;;;;3.36;77.13;100438.09;5128238;28;20027;-63
2024/03/13 02:31:46;;;;;;;1.88;1.75;;;;;;;3.27;77.71;100441.34;5128339;28;20027;-63
2024/03/13 02:34:13;;;;;;;9.13;3.08;;;;;;;3.19;78.39;100432.59;5128195;28;20460;-63
2024/03/13 02:36:38;;;;;;;2.50;2.30;;;;;;;3.14;78.73;100421.38;5128145;28;20087;-63
2024/03/13 02:39:04;;;;;;;3.60;1.63;;;;;;;3.15;79.22;100429.09;5128164;28;20045;-62
2024/03/13 02:41:31;;;;;;;3.08;2.35;;;;;;;3.08;79.59;100429.81;5127906;28;20444;-62
2024/03/13 02:43:58;;;;;;;3.25;2.95;;;;;;;3.04;79.91;100422.84;5128201;28;20023;-62
2024/03/13 02:46:25;;;;;;;11.75;2.47;;;;;;;3.08;79.86;100434.94;5126793;28;20035;-62
2024/03/13 02:48:51;;;;;;;9.35;4.55;;;;;;;3.01;80.18;100439.03;5127927;28;20079;-63
2024/03/13 02:51:16;;;;;;;5.60;3.42;;;;;;;3.01;80.27;100431.34;5127875;28;20113;-62
2024/03/13 02:53:42;;;;;;;4.25;2.88;;;;;;;3.08;80.20;100437.50;5127835;28;20114;-62
2024/03/13 02:56:07;;;;;;;6.55;2.17;;;;;;;3.17;79.85;100442.84;5127573;28;20110;-61
2024/03/13 02:58:33;;;;;;;3.42;2.17;;;;;;;3.15;79.71;100430.78;5127756;28;20027;-61
2024/03/13 03:01:01;;;;;;;10.48;5.32;;;;;;;3.21;79.74;100436.06;5127668;28;20065;-62
2024/03/13 03:03:28;;;;;;;11.50;3.05;;;;;;;3.24;79.58;100431.00;5127706;28;20025;-62
2024/03/13 03:05:53;;;;;;;4.65;3.70;;;;;;;3.28;79.40;100421.66;5127665;28;20079;-62
2024/03/13 03:08:19;;;;;;;3.92;2.70;;;;;;;3.28;79.23;100408.84;5127428;28;20027;-63
2024/03/13 03:10:45;;;;;;;5.78;3.25;;;;;;;3.32;79.17;100426.06;5126176;28;20048;-63
2024/03/13 03:13:10;;;;;;;5.35;3.88;;;;;;;3.40;79.09;100413.38;5127475;28;20038;-62
2024/03/13 03:15:38;;;;;;;2.47;2.17;;;;;;;3.44;79.06;100412.59;5127637;28;20019;-62
2024/03/13 03:18:04;;;;;;;7.47;4.25;;;;;;;3.37;79.35;100411.59;5127265;28;20019;-62
2024/03/13 03:20:29;;;;;;;3.42;3.13;;;;;;;3.34;79.49;100398.69;5127484;28;20088;-62
2024/03/13 03:22:55;;;;;;;1.75;1.65;;;;;;;3.24;79.90;100387.41;5127332;28;20024;-61
2024/03/13 03:25:21;;;;;;;1.48;1.38;;;;;;;3.27;80.41;100401.97;5127256;28;20027;-61
2024/03/13 03:27:46;;;;;;;7.03;3.10;;;;;;;3.19;80.92;100406.94;5127206;28;20020;-61
2024/03/13 03:30:11;;;;;;;6.13;2.72;;;;;;;3.15;81.42;100405.13;5125748;28;20035;-60
2024/03/13 03:32:37;;;;;;;4.75;2.67;;;;;;;3.12;81.69;100405.94;5127594;28;20028;-60
2024/03/13 03:35:04;;;;;;;8.20;3.78;;;;;;;3.12;81.92;100402.50;5127034;28;20023;-62
2024/03/13 03:37:31;;;;;;;4.10;2.28;;;;;;;3.10;82.21;100405.03;5126980;28;20091;-60
2024/03/13 03:39:56;;;;;;;8.35;3.25;;;;;;;3.11;82.38;100393.94;5127034;28;20027;-60
2024/03/13 03:42:24;;;;;;;1.40;1.17;;;;;;;3.10;82.68;100400.78;5126954;28;20143;-60
2024/03/13 03:44:50;;;;;;;2.13;1.50;;;;;;;3.07;83.04;100399.84;5127124;28;20024;-58
2024/03/13 03:47:15;;;;;;;4.80;2.25;;;;;;;3.03;83.50;100401.47;5127436;28;20012;-61
2024/03/13 03:49:41;;;;;;;3.58;2.13;;;;;;;3.02;83.79;100393.75;5127190;28;20453;-59
2024/03/13 03:52:07;;;;;;;3.90;2.38;;;;;;;3.01;84.00;100394.56;5127206;28;20047;-60
2024/03/13 03:54:36;;;;;;;2.97;1.25;;;;;;;3.06;84.40;100392.97;5126940;28;20036;-60
2024/03/13 03:57:01;;;;;;;4.00;1.90;;;;;;;2.98;84.88;100395.38;5126729;28;20035;-61
2024/03/13 03:59:26;;;;;;;1.58;1.50;;;;;;;2.97;85.00;100384.25;5126755;28;20128;-61
2024/03/13 04:01:52;;;;;;;5.43;2.60;;;;;;;2.97;85.19;100389.38;5126497;28;20015;-61
2024/03/13 04:04:18;;;;;;;7.07;2.00;;;;;;;3.02;85.11;100392.03;5126490;28;20019;-61
2024/03/13 04:06:43;;;;;;;8.85;2.88;;;;;;;3.04;85.41;100394.63;5108453;28;20084;-60
2024/03/13 04:09:14;;;;;;;2.05;1.95;;;;;;;2.97;85.93;100383.41;5126460;28;20043;-61
2024/03/13 04:11:42;;;;;;;14.18;2.75;;;;;;;3.00;86.09;100385.16;5126505;28;20029;-60
2024/03/13 04:14:09;;;;;;;27.50;3.80;;;;;;;3.03;86.22;100390.34;5126714;28;20027;-61
2024/03/13 04:16:35;;;;;;;9.05;4.22;;;;;;;3.09;86.01;100391.34;5126291;28;20020;-60
2024/03/13 04:19:00;;;;;;;3.20;2.15;;;;;;;3.12;85.83;100389.66;5126329;28;20023;-61
2024/03/13 04:21:27;;;;;;;5.53;3.20;;;;;;;3.15;85.71;100380.34;5125094;28;20027;-61
2024/03/13 04:23:54;;;;;;;2.80;1.42;;;;;;;3.26;84.87;100385.72;5126471;28;20024;-60
2024/03/13 04:26:20;;;;;;;2.40;2.15;;;;;;;3.29;85.03;100384.94;5126285;28;20087;-60
2024/03/13 04:28:46;;;;;;;2.42;2.22;;;;;;;3.18;85.51;100377.84;5126177;28;20125;-60
2024/03/13 04:31:13;;;;;;;0.90;0.90;;;;;;;3.21;85.60;100385.59;5107886;28;20026;-60
2024/03/13 04:33:41;;;;;;;7.03;4.47;;;;;;;3.20;85.97;100383.88;5126097;28;20034;-60
2024/03/13 04:36:07;;;;;;;5.68;2.75;;;;;;;3.19;86.17;100371.91;5126184;28;20031;-60
2024/03/13 04:38:33;;;;;;;2.55;1.40;;;;;;;3.15;86.52;100375.22;5126034;28;20028;-61
2024/03/13 04:40:58;;;;;;;4.20;2.65;;;;;;;3.12;87.02;100376.84;5125916;28;20485;-61
2024/03/13 04:43:27;;;;;;;4.40;1.15;;;;;;;3.12;86.94;100370.03;5107584;28;20039;-60
2024/03/13 04:45:53;;;;;;;4.05;2.17;;;;;;;3.13;87.42;100371.75;5126126;28;20024;-61
2024/03/13 04:48:19;;;;;;;2.95;2.47;;;;;;;3.12;87.68;100370.03;5125602;28;20024;-61
2024/03/13 04:50:44;;;;;;;13.98;4.70;;;;;;;3.14;87.89;100376.06;5126091;28;20024;-62
2024/03/13 04:53:09;;;;;;;17.75;4.95;;;;;;;3.14;87.97;100376.06;5125956;28;20031;-60
2024/03/13 04:55:35;;;;;;;9.85;4.72;;;;;;;3.19;87.87;100384.72;5125689;28;20035;-60
2024/03/13 04:58:00;;;;;;;9.02;4.05;;;;;;;3.24;87.75;100384.84;5125968;28;20016;-61
2024/03/13 05:00:26;;;;;;;10.10;4.20;;;;;;;3.31;87.55;100384.13;5124511;28;20023;-60
2024/03/13 05:02:52;;;;;;;16.17;6.63;;;;;;;3.30;87.33;100378.94;5125603;28;20027;-61
2024/03/13 05:05:18;;;;;;;5.88;3.65;;;;;;;3.40;87.20;100380.00;5125667;28;20024;-60
2024/03/13 05:07:43;;;;;;;3.70;3.35;;;;;;;3.46;86.88;100378.44;5125769;28;20064;-59
2024/03/13 05:10:09;;;;;;;7.47;6.63;;;;;;;3.44;87.05;100372.41;5125194;28;20056;-60
2024/03/13 05:12:37;;;;;;;9.43;5.15;;;;;;;3.46;86.72;100368.19;5125652;28;20024;-60
2024/03/13 05:15:04;;;;;;;10.38;4.88;;;;;;;3.51;86.76;100375.09;5107332;28;20054;-59
2024/03/13 05:17:29;;;;;;;25.45;7.70;;;;;;;3.47;86.73;100375.03;5125432;28;20035;-61
2024/03/13 05:19:56;;;;;;;10.43;6.82;;;;;;;3.55;86.47;100376.88;5125803;28;20019;-60
2024/03/13 05:22:22;;;;;;;28.60;6.75;;;;;;;3.57;86.51;100375.22;5107138;28;20035;-60
2024/03/13 05:24:49;;;;;;;10.48;5.43;;;;;;;3.52;86.52;100369.13;5125545;28;20026;-60
2024/03/13 05:27:15;;;;;;;9.15;5.97;;;;;;;3.55;86.68;100370.06;5125167;28;20042;-59
2024/03/13 05:29:41;;;;;;;12.65;5.57;;;;;;;3.54;86.75;100359.75;5125320;28;20016;-58
2024/03/13 05:32:07;;;;;;;13.25;6.95;;;;;;;3.54;86.85;100354.63;5125585;28;20030;-61
2024/03/13 05:34:32;;;;;;;17.73;6.80;;;;;;;3.55;87.02;100361.47;5125499;28;20468;-59
2024/03/13 05:36:58;;;;;;;5.80;5.07;;;;;;;3.56;87.20;100358.94;5125212;28;20035;-59
2024/03/13 05:39:24;;;;;;;18.52;7.18;;;;;;;3.58;87.20;100358.97;5125406;28;20020;-58
2024/03/13 05:41:49;;;;;;;31.23;8.23;;;;;;;3.57;87.17;100360.69;5125180;28;20023;-59
2024/03/13 05:44:15;;;;;;;18.05;7.85;;;;;;;3.50;87.61;100363.09;5125482;28;20019;-60
2024/03/13 05:46:41;;;;;;;18.17;6.70;;;;;;;3.47;87.84;100361.31;5125427;28;20024;-59
2024/03/13 05:49:06;;;;;;;21.25;8.40;;;;;;;3.53;87.80;100364.00;5124927;28;20047;-60
2024/03/13 05:51:34;;;;;;;12.48;5.10;;;;;;;3.62;87.56;100371.03;5125386;28;20065;-61
2024/03/13 05:54:00;;;;;;;16.55;6.85;;;;;;;3.65;87.43;100375.34;5125249;28;20099;-60
2024/03/13 05:56:26;;;;;;;17.42;7.22;;;;;;;3.67;87.42;100369.44;5125166;28;20023;-60
2024/03/13 05:58:51;;;;;;;16.00;7.75;;;;;;;3.68;87.36;100375.41;5125454;28;20118;-61
2024/03/13 06:01:22;;;;;;;29.25;7.18;;;;;;;3.70;87.29;100376.31;5125058;28;20035;-60
2024/03/13 06:03:47;;;;;;;31.50;11.43;;;;;;;3.68;87.54;100380.56;5125108;28;20024;-61
2024/03/13 06:06:12;;;;;;;12.35;7.18;;;;;;;3.68;87.55;100383.13;5125190;28;20085;-61
2024/03/13 06:08:38;;;;;;;18.95;7.63;;;;;;;3.71;87.44;100378.91;5124785;28;20503;-60
2024/03/13 06:11:05;;;;;;;21.35;5.25;;;;;;;3.69;87.47;100364.34;5124937;28;20023;-60
2024/03/13 06:13:31;;;;;;;12.65;5.20;;;;;;;3.69;87.61;100370.31;5125201;28;20091;-62
2024/03/13 06:15:56;;;;;;;6.93;5.68;;;;;;;3.74;87.47;100374.69;5106756;28;20428;-60
2024/03/13 06:18:23;;;;;;;23.00;10.43;;;;;;;3.75;87.45;100366.13;5124864;28;20023;-61
2024/03/13 06:20:48;;;;;;;22.25;10.85;;;;;;;3.78;87.35;100359.38;5124955;28;20039;-60
2024/03/13 06:23:16;;;;;;;31.15;10.60;;;;;;;3.78;87.54;100366.19;5125083;28;20022;-60
2024/03/13 06:25:43;;;;;;;12.05;8.48;;;;;;;3.80;87.38;100357.69;5106745;28;20106;-61
2024/03/13 06:30:52;;;;;;;11.63;7.40;;;;;;;3.84;87.64;100358.59;5128840;28;20360;-61
2024/03/13 06:33:18;;;;;;;21.27;8.20;;;;;;;3.86;87.55;100351.81;5128560;28;20023;-61
2024/03/13 06:35:43;;;;;;;21.25;8.80;;;;;;;3.91;87.32;100355.31;5128449;28;20024;-62
2024/03/13 06:38:09;;;;;;;17.40;9.90;;;;;;;3.89;87.27;100346.72;5128576;28;20027;-60
2024/03/13 06:40:34;;;;;;;6.53;4.07;;;;;;;3.92;87.17;100345.91;5128365;28;20061;-61
2024/03/13 06:42:59;;;;;;;18.70;7.53;;;;;;;3.93;87.32;100351.06;5126722;28;20034;-62
2024/03/13 06:45:25;;;;;;;6.90;4.40;;;;;;;3.96;87.06;100340.84;5128297;28;20578;-62
2024/03/13 06:47:51;;;;;;;23.25;8.63;;;;;;;3.91;87.48;100345.06;5128388;28;20089;-60
2024/03/13 06:50:17;;;;;;;15.05;9.48;;;;;;;3.82;87.75;100343.16;5128660;28;20020;-60
2024/03/13 06:52:43;;;;;;;13.60;5.88;;;;;;;3.83;88.16;100346.63;5128576;28;20034;-61
2024/03/13 06:55:09;;;;;;;13.52;7.10;;;;;;;3.87;88.06;100356.09;5128403;28;20088;-60
2024/03/13 06:57:34;;;;;;;20.33;7.30;;;;;;;3.90;88.08;100347.59;5128353;28;20106;-61
2024/03/13 06:59:59;;;;;;;25.63;6.60;;;;;;;3.89;88.13;100351.84;5109785;28;20364;-61
2024/03/13 07:02:25;;;;;;;24.00;7.25;;;;;;;3.89;88.19;100351.84;5128305;28;20020;-60
2024/03/13 07:04:51;;;;;;;41.97;12.82;;;;;;;3.93;88.06;100342.50;5128058;28;20045;-60
2024/03/13 07:07:16;;;;;;;26.67;7.68;;;;;;;4.05;87.78;100342.72;5128317;28;20019;-61
2024/03/13 07:09:42;;;;;;;14.73;6.95;;;;;;;4.06;87.96;100346.13;5127843;28;20063;-61
2024/03/13 07:12:07;;;;;;;11.52;6.65;;;;;;;4.04;87.99;100343.53;5128034;28;20101;-61
2024/03/13 07:14:33;;;;;;;21.33;9.80;;;;;;;4.06;87.88;100354.72;5128371;28;20491;-61
2024/03/13 07:16:58;;;;;;;29.13;7.85;;;;;;;4.06;88.19;100348.69;5127890;28;20027;-60
2024/03/13 07:19:24;;;;;;;24.77;11.50;;;;;;;4.09;87.82;100343.63;5127857;28;20024;-61
2024/03/13 07:21:49;;;;;;;17.92;6.07;;;;;;;4.09;87.90;100343.63;5127927;28;20039;-59
2024/03/13 07:24:17;;;;;;;6.07;4.10;;;;;;;4.12;87.93;100353.94;5127966;28;20024;-61
2024/03/13 07:26:43;;;;;;;15.25;8.13;;;;;;;4.14;87.96;100357.41;5127601;28;20552;-59
2024/03/13 07:29:09;;;;;;;13.60;6.85;;;;;;;4.09;88.00;100354.78;5127879;28;20106;-59
2024/03/13 07:31:34;;;;;;;31.83;8.70;;;;;;;4.11;88.23;100357.38;5127613;28;20023;-61
2024/03/13 07:34:00;;;;;;;13.55;8.35;;;;;;;4.11;88.21;100356.50;5127580;28;20495;-60
2024/03/13 07:36:25;;;;;;;23.52;6.22;;;;;;;4.16;87.98;100360.88;5127630;28;20028;-62
2024/03/13 07:38:50;;;;;;;8.40;5.65;;;;;;;4.16;87.90;100360.00;5126226;28;20137;-61
2024/03/13 07:41:16;;;;;;;10.13;5.45;;;;;;;4.15;87.76;100351.47;5127565;28;20165;-61
2024/03/13 07:43:42;;;;;;;25.75;6.50;;;;;;;4.16;87.67;100360.00;5127270;28;20022;-61
2024/03/13 07:46:09;;;;;;;12.05;6.32;;;;;;;4.14;87.88;100360.00;5127486;28;20547;-61
2024/03/13 07:48:36;;;;;;;19.08;6.68;;;;;;;4.14;87.83;100364.28;5127621;28;20084;-60
2024/03/13 07:51:02;;;;;;;10.25;5.50;;;;;;;4.20;87.72;100357.53;5108997;28;20543;-60
2024/03/13 07:53:29;;;;;;;28.02;8.80;;;;;;;4.13;87.81;100357.38;5127365;28;20020;-61
2024/03/13 07:55:55;;;;;;;7.90;5.45;;;;;;;4.10;87.98;100355.66;5127280;28;20034;-61
2024/03/13 07:58:20;;;;;;;14.95;7.03;;;;;;;4.12;88.02;100356.50;5127107;28;20024;-61
2024/03/13 08:00:46;;;;;;;11.57;6.95;;;;;;;4.18;87.93;100363.50;5127035;28;20058;-61
2024/03/13 08:03:12;;;;;;;10.93;7.05;;;;;;;4.15;88.10;100359.16;5127216;28;20125;-61
2024/03/13 08:05:37;;;;;;;8.82;6.47;;;;;;;4.16;88.24;100366.03;5108639;28;20097;-61
2024/03/13 08:08:03;;;;;;;18.30;5.72;;;;;;;4.15;88.27;100360.88;5126986;28;20039;-61
2024/03/13 08:10:29;;;;;;;14.00;4.70;;;;;;;4.20;88.11;100362.66;5126893;28;20051;-63
2024/03/13 08:12:56;;;;;;;15.85;7.65;;;;;;;4.17;88.20;100361.75;5126692;28;20073;-61
2024/03/13 08:15:21;;;;;;;27.10;10.60;;;;;;;4.15;88.33;100363.44;5126958;28;20024;-62
2024/03/13 08:17:46;;;;;;;12.40;6.25;;;;;;;4.17;88.00;100352.34;5126596;28;20030;-61
2024/03/13 08:20:13;;;;;;;11.43;6.75;;;;;;;4.16;88.27;100365.16;5126676;28;20121;-62
2024/03/13 08:22:44;;;;;;;16.33;6.22;;;;;;;4.18;88.44;100364.38;5126757;28;20035;-61
2024/03/13 08:25:16;;;;;;;16.27;7.15;;;;;;;4.23;88.41;100367.00;5126632;28;20073;-61
2024/03/13 08:27:48;;;;;;;14.00;9.48;;;;;;;4.20;88.73;100372.94;5126757;28;20028;-61
2024/03/13 08:30:17;;;;;;;6.78;2.53;;;;;;;4.29;88.45;100371.38;5126676;28;20023;-60
2024/03/13 08:32:43;;;;;;;9.88;5.38;;;;;;;4.26;88.22;100350.75;5126459;28;20590;-62
2024/03/13 08:35:09;;;;;;;9.48;5.03;;;;;;;4.20;88.39;100365.22;5126571;28;20030;-61
2024/03/13 08:37:34;;;;;;;21.80;8.68;;;;;;;4.17;88.12;100356.63;5126454;28;20020;-62
2024/03/13 08:40:00;;;;;;;17.23;7.88;;;;;;;4.26;88.26;100366.19;5126278;28;20031;-61
2024/03/13 08:42:27;;;;;;;17.02;8.70;;;;;;;4.27;88.64;100367.91;5126339;28;20023;-62
2024/03/13 08:44:52;;;;;;;24.63;8.13;;;;;;;4.27;88.24;100352.47;5126291;28;20023;-61
2024/03/13 08:47:18;;;;;;;16.02;6.22;;;;;;;4.33;88.31;100368.00;5126184;28;20030;-61
2024/03/13 08:49:45;;;;;;;23.35;10.13;;;;;;;4.27;88.32;100370.47;5125891;28;20471;-62
2024/03/13 08:52:12;;;;;;;7.35;4.18;;;;;;;4.34;88.23;100374.91;5107662;28;20024;-61
2024/03/13 08:54:38;;;;;;;12.45;9.80;;;;;;;4.25;88.39;100364.47;5126301;28;20030;-60
2024/03/13 08:57:04;;;;;;;18.05;8.25;;;;;;;4.25;88.46;100361.91;5125900;28;20499;-61
2024/03/13 08:59:29;;;;;;;18.58;9.55;;;;;;;4.27;88.70;100373.03;5126038;28;20045;-60
2024/03/13 09:01:54;;;;;;;13.75;5.63;;;;;;;4.33;88.25;100373.16;5126191;28;20472;-61
2024/03/13 09:04:22;;;;;;;22.52;8.13;;;;;;;4.25;88.78;100365.31;5126116;28;20043;-61
2024/03/13 09:06:49;;;;;;;18.73;7.07;;;;;;;4.21;88.52;100369.56;5126108;28;20024;-61
2024/03/13 09:09:23;;;;;;;11.77;8.05;;;;;;;4.24;88.78;100375.56;5125820;28;20667;-61
2024/03/13 09:11:49;;;;;;;9.25;3.38;;;;;;;4.15;88.87;100368.56;5125694;28;20027;-62
2024/03/13 09:14:17;;;;;;;29.38;7.50;;;;;;;4.22;89.05;100383.25;5126036;28;20037;-61
2024/03/13 09:16:43;;;;;;;8.38;4.55;;;;;;;4.22;89.27;100383.25;5126359;28;20019;-60
2024/03/13 09:19:08;;;;;;;26.35;8.75;;;;;;;4.30;88.81;100381.69;5126182;28;20348;-61
2024/03/13 09:21:34;;;;;;;25.13;6.82;;;;;;;4.27;88.68;100383.31;5126120;28;20042;-61
2024/03/13 09:24:00;;;;;;;15.82;6.78;;;;;;;4.25;88.93;100380.72;5125831;28;20023;-61
2024/03/13 09:26:25;;;;;;;13.98;8.40;;;;;;;4.26;89.14;100371.31;5125519;28;20039;-62
2024/03/13 09:28:50;;;;;;;6.13;4.32;;;;;;;4.28;88.86;100370.50;5125905;28;20435;-60
2024/03/13 09:31:16;;;;;;;6.03;2.85;;;;;;;4.34;88.62;100383.44;5125748;28;20471;-61
2024/03/13 09:33:41;;;;;;;11.55;5.82;;;;;;;4.26;89.15;100387.63;5125626;28;20023;-61
2024/03/13 09:36:12;;;;;;;8.30;3.33;;;;;;;4.21;89.22;100390.13;5125803;28;20031;-62
2024/03/13 09:38:38;;;;;;;17.40;8.20;;;;;;;4.22;89.41;100384.13;5124149;28;20028;-62
2024/03/13 09:41:08;;;;;;;12.20;4.88;;;;;;;4.29;89.15;100381.66;5125419;28;20029;-61
2024/03/13 09:43:36;;;;;;;18.95;8.77;;;;;;;4.18;89.41;100379.78;5125589;28;20379;-60
2024/03/13 09:46:03;;;;;;;8.38;6.22;;;;;;;4.21;89.58;100378.97;5107078;28;20040;-61
2024/03/13 09:48:29;;;;;;;5.90;4.88;;;;;;;4.28;89.37;100369.66;5125521;28;20455;-61
2024/03/13 09:50:56;;;;;;;12.07;7.03;;;;;;;4.17;89.71;100367.75;5125624;28;20034;-61
2024/03/13 09:53:23;;;;;;;20.98;8.77;;;;;;;4.16;90.16;100366.03;5124092;28;20027;-60
2024/03/13 09:55:49;;;;;;;29.42;9.57;;;;;;;4.19;90.41;100372.91;5125355;28;20027;-60
2024/03/13 09:58:15;;;;;;;9.15;3.47;;;;;;;4.17;90.54;100362.59;5125167;28;20063;-61
2024/03/13 10:00:41;;;;;;;13.80;8.23;;;;;;;4.17;90.95;100364.34;5126112;28;20040;-61
2024/03/13 10:03:21;;;;;;;11.77;5.55;;;;;;;4.26;90.45;100368.75;5129471;28;20031;-61
2024/03/13 10:05:49;;;;;;;5.30;3.70;;;;;;;4.27;90.30;100367.91;5129236;28;20479;-61
2024/03/13 10:08:16;;;;;;;15.30;7.28;;;;;;;4.18;90.73;100361.78;5111003;28;20087;-61
2024/03/13 10:10:45;;;;;;;12.55;7.30;;;;;;;4.20;90.94;100365.22;5129134;28;20126;-61
2024/03/13 10:13:13;;;;;;;6.95;4.82;;;;;;;4.20;91.24;100367.81;5129218;28;20027;-62
2024/03/13 10:15:39;;;;;;;14.95;7.60;;;;;;;4.24;91.12;100363.59;5129211;28;20479;-61
2024/03/13 10:18:17;;;;;;;11.73;6.95;;;;;;;4.21;91.48;100366.09;5129001;28;20075;-60
2024/03/13 10:20:47;;;;;;;22.60;7.32;;;;;;;4.24;91.70;100363.59;5129021;28;20024;-60
2024/03/13 10:23:15;;;;;;;8.82;3.63;;;;;;;4.31;91.73;100354.28;5129268;28;20039;-61
2024/03/13 10:25:44;;;;;;;4.45;4.10;;;;;;;4.40;90.99;100357.00;5128877;28;20047;-61
2024/03/13 10:28:13;;;;;;;18.08;8.50;;;;;;;4.27;91.59;100352.47;5128878;28;20028;-60
2024/03/13 10:30:39;;;;;;;26.33;10.15;;;;;;;4.29;91.69;100343.09;5129064;28;20463;-60
2024/03/13 10:33:06;;;;;;;14.65;5.68;;;;;;;4.35;91.58;100348.34;5129047;28;20019;-61
2024/03/13 10:35:31;;;;;;;7.65;5.22;;;;;;;4.25;91.86;100344.75;5128842;28;20057;-60
2024/03/13 10:37:57;;;;;;;10.48;4.60;;;;;;;4.37;92.04;100349.25;5110408;28;20131;-60
2024/03/13 10:40:24;;;;;;;7.28;4.82;;;;;;;4.32;92.20;100356.88;5128679;28;20020;-61
2024/03/13 10:42:50;;;;;;;7.53;4.90;;;;;;;4.39;92.13;100336.41;5128708;28;20027;-61
2024/03/13 10:45:15;;;;;;;10.32;4.22;;;;;;;4.44;91.34;100357.94;5127317;28;20026;-61
2024/03/13 10:47:42;;;;;;;21.10;8.40;;;;;;;4.34;91.68;100347.47;5128415;28;20038;-60
2024/03/13 10:50:12;;;;;;;14.90;9.95;;;;;;;4.17;92.57;100347.19;5128494;28;20023;-59
2024/03/13 10:52:39;;;;;;;27.75;10.82;;;;;;;4.25;92.95;100356.75;5128610;28;20030;-61
2024/03/13 10:55:08;;;;;;;15.48;7.13;;;;;;;4.31;93.11;100360.25;5128622;28;20034;-60
2024/03/13 10:57:36;;;;;;;10.27;5.20;;;;;;;4.25;92.96;100329.31;5128366;28;20035;-60
2024/03/13 11:00:11;;;;;;;6.88;4.43;;;;;;;4.44;92.83;100355.34;5128255;28;20024;-60
2024/03/13 11:02:40;;;;;;;9.43;7.00;;;;;;;4.38;92.46;100339.84;5128431;28;20020;-61
2024/03/13 11:05:11;;;;;;;22.10;8.57;;;;;;;4.36;92.93;100357.78;5128404;28;20023;-60
2024/03/13 11:07:36;;;;;;;21.77;9.17;;;;;;;4.40;93.25;100356.13;5128276;28;20054;-61
2024/03/13 11:10:02;;;;;;;12.88;5.18;;;;;;;4.39;93.29;100349.25;5127403;28;20043;-62
2024/03/13 11:12:31;;;;;;;21.15;8.23;;;;;;;4.42;93.41;100341.59;5126668;28;20111;-59
2024/03/13 11:15:03;;;;;;;16.55;6.45;;;;;;;4.52;93.40;100350.31;5126859;28;20027;-60
2024/03/13 11:17:29;;;;;;;10.38;7.97;;;;;;;4.54;93.39;100357.22;5127056;28;20088;-60
2024/03/13 11:20:05;;;;;;;17.40;7.05;;;;;;;4.65;92.89;100359.94;5126877;28;20024;-59
2024/03/13 11:22:31;;;;;;;24.00;7.70;;;;;;;4.67;93.06;100358.28;5126900;28;20049;-61
2024/03/13 11:25:00;;;;;;;19.42;8.98;;;;;;;4.76;92.77;100351.53;5127036;28;20507;-62
2024/03/13 11:27:27;;;;;;;10.20;5.88;;;;;;;4.75;92.08;100345.53;5126742;28;20024;-61
2024/03/13 11:29:54;;;;;;;17.70;6.28;;;;;;;4.71;92.57;100348.91;5126669;28;20024;-61
2024/03/13 11:32:20;;;;;;;7.57;5.90;;;;;;;4.73;92.48;100346.34;5126617;28;20023;-61
2024/03/13 11:34:51;;;;;;;8.48;5.78;;;;;;;4.66;92.60;100335.09;5126643;28;20077;-62
2024/03/13 11:37:18;;;;;;;15.73;5.93;;;;;;;4.71;92.83;100352.31;5126879;28;20020;-61
2024/03/13 11:39:45;;;;;;;24.63;9.00;;;;;;;4.75;92.89;100365.22;5126673;28;20020;-61
2024/03/13 11:42:14;;;;;;;21.33;6.93;;;;;;;4.81;92.92;100357.59;5126440;28;20058;-61
2024/03/13 11:44:49;;;;;;;24.15;9.90;;;;;;;4.84;92.99;100361.09;5126625;28;20045;-63